Time;durP1;ratioP1;P1;durP2;ratioP2;P2;SDS_P1;SDS_P2;PMS_P1;PMS_P2;Temp;Humidity;BMP_temperature;BMP_pressure;BME280_temperature;BME280_humidity;BME280_pressure;Samples;Min_cycle;Max_cycle;Signal;HPM_P1;HPM_P2
2022/11/01 00:01:57;;;;;;;12.57;4.28;;;16.40;76.70;;;;;;5035528;28;20033;-75
2022/11/01 00:04:23;;;;;;;9.95;4.30;;;16.40;76.80;;;;;;5051769;28;20029;-75
2022/11/01 00:06:49;;;;;;;10.07;4.50;;;16.40;77.80;;;;;;5052969;28;20057;-75
2022/11/01 00:09:15;;;;;;;8.85;4.75;;;16.40;77.00;;;;;;5052751;28;20053;-75
2022/11/01 00:11:41;;;;;;;9.10;4.10;;;16.40;77.10;;;;;;5052871;28;20036;-75
2022/11/01 00:14:10;;;;;;;10.68;4.78;;;16.40;77.30;;;;;;5052846;28;20029;-75
2022/11/01 00:16:35;;;;;;;14.27;5.05;;;16.40;77.50;;;;;;5053512;28;20025;-75
2022/11/01 00:19:01;;;;;;;10.10;4.68;;;16.30;77.80;;;;;;5039258;28;20049;-75
2022/11/01 00:21:27;;;;;;;10.25;4.70;;;16.30;78.00;;;;;;5039300;28;20425;-75
2022/11/01 00:23:52;;;;;;;10.30;4.85;;;16.30;78.30;;;;;;5022914;28;20052;-75
2022/11/01 00:26:21;;;;;;;11.52;4.53;;;16.30;78.40;;;;;;5039090;28;20404;-74
2022/11/01 00:28:47;;;;;;;10.90;4.80;;;16.30;78.70;;;;;;5056519;28;20034;-75
2022/11/01 00:31:15;;;;;;;11.85;5.10;;;16.30;78.70;;;;;;5056493;28;20018;-74
2022/11/01 00:33:41;;;;;;;11.43;5.00;;;16.30;78.90;;;;;;5056426;28;20049;-74
2022/11/01 00:36:07;;;;;;;13.25;5.22;;;16.30;80.00;;;;;;5056554;28;20030;-74
2022/11/01 00:38:34;;;;;;;12.88;5.28;;;16.30;79.20;;;;;;5056373;28;20059;-75
2022/11/01 00:41:01;;;;;;;9.35;5.07;;;16.40;79.30;;;;;;5056335;28;20121;-75
2022/11/01 00:43:27;;;;;;;9.07;4.90;;;16.30;79.40;;;;;;5038732;28;20030;-74
2022/11/01 00:45:52;;;;;;;7.32;4.15;;;16.30;79.40;;;;;;5038734;28;20460;-75
2022/11/01 00:48:18;;;;;;;11.38;4.55;;;16.30;79.80;;;;;;5038713;28;20112;-75
2022/11/01 00:50:43;;;;;;;12.93;5.40;;;16.30;79.70;;;;;;5056301;28;20089;-75
2022/11/01 00:53:11;;;;;;;10.27;4.78;;;16.30;79.80;;;;;;5022335;28;20056;-74
2022/11/01 00:55:37;;;;;;;9.23;5.00;;;16.30;80.10;;;;;;5056064;28;20469;-74
2022/11/01 00:58:03;;;;;;;10.25;4.75;;;16.30;80.10;;;;;;5055997;28;20049;-75
2022/11/01 01:00:29;;;;;;;14.00;5.07;;;16.30;80.10;;;;;;5055975;28;20022;-75
2022/11/01 01:02:54;;;;;;;12.00;5.47;;;16.30;80.20;;;;;;5022180;28;20036;-75
2022/11/01 01:05:21;;;;;;;11.82;4.75;;;16.30;80.30;;;;;;5038305;28;20160;-74
2022/11/01 01:07:46;;;;;;;10.38;4.72;;;16.30;80.50;;;;;;5055761;28;20052;-75
2022/11/01 01:10:13;;;;;;;9.57;4.70;;;16.30;80.60;;;;;;5055730;28;20046;-75
2022/11/01 01:12:38;;;;;;;13.35;4.35;;;16.30;80.80;;;;;;5055759;28;20033;-75
2022/11/01 01:15:04;;;;;;;11.70;4.70;;;16.30;80.80;;;;;;5038162;28;20030;-75
2022/11/01 01:17:31;;;;;;;5.97;4.15;;;16.30;80.80;;;;;;5055605;28;20034;-75
2022/11/01 01:19:57;;;;;;;10.23;4.60;;;16.30;80.70;;;;;;5055624;28;20025;-75
2022/11/01 01:22:22;;;;;;;11.55;4.55;;;16.30;80.50;;;;;;5055578;28;20561;-75
2022/11/01 01:24:48;;;;;;;11.07;4.80;;;16.30;80.70;;;;;;5038076;28;20056;-75
2022/11/01 01:27:14;;;;;;;8.57;4.20;;;16.30;80.90;;;;;;5021509;28;20030;-75
2022/11/01 01:29:40;;;;;;;13.77;4.97;;;16.30;81.10;;;;;;5054109;28;20060;-75
2022/11/01 01:32:17;;;;;;;13.93;5.60;;;16.30;81.50;;;;;;5055393;28;20064;-75
2022/11/01 01:34:43;;;;;;;9.63;4.20;;;16.30;82.40;;;;;;5055392;28;20028;-75
2022/11/01 01:37:09;;;;;;;10.82;4.07;;;16.30;82.50;;;;;;5055331;28;20021;-75
2022/11/01 01:39:36;;;;;;;9.38;3.53;;;16.40;82.90;;;;;;5055361;28;20032;-74
2022/11/01 01:42:11;;;;;;;8.60;3.92;;;16.40;82.90;;;;;;5055207;28;20056;-75
2022/11/01 01:45:03;;;;;;;7.40;3.70;;;16.50;83.00;;;;;;5055316;28;20028;-74
2022/11/01 01:47:31;;;;;;;9.10;3.65;;;16.60;83.20;;;;;;5054908;28;20025;-75
2022/11/01 01:50:17;;;;;;;8.00;3.30;;;16.60;83.40;;;;;;5054995;28;20029;-74
2022/11/01 01:52:47;;;;;;;9.88;3.50;;;16.60;83.60;;;;;;5054979;28;20021;-75
2022/11/01 01:55:17;;;;;;;6.82;3.28;;;16.60;83.60;;;;;;5055121;28;20073;-75
2022/11/01 01:57:43;;;;;;;10.15;3.90;;;16.70;83.80;;;;;;5054980;28;20022;-75
2022/11/01 02:00:09;;;;;;;10.63;3.45;;;16.70;84.40;;;;;;5054838;28;20048;-75
2022/11/01 02:02:35;;;;;;;7.07;3.70;;;16.70;83.60;;;;;;5054759;28;20029;-75
2022/11/01 02:05:08;;;;;;;7.38;3.53;;;16.80;83.80;;;;;;5054492;28;20049;-75
2022/11/01 02:07:34;;;;;;;6.05;2.92;;;16.70;83.80;;;;;;5054621;28;20496;-74
2022/11/01 02:09:59;;;;;;;6.55;3.28;;;16.70;84.10;;;;;;5054634;28;20045;-75
2022/11/01 02:12:32;;;;;;;6.72;3.25;;;16.70;84.10;;;;;;5054645;28;20081;-75
2022/11/01 02:14:58;;;;;;;7.95;3.65;;;16.80;84.20;;;;;;5053683;28;20026;-75
2022/11/01 02:17:42;;;;;;;5.53;3.35;;;16.80;84.20;;;;;;5037017;28;20062;-75
2022/11/01 02:20:39;;;;;;;10.73;3.45;;;16.80;84.30;;;;;;5054638;28;20060;-75
2022/11/01 02:23:14;;;;;;;6.72;3.42;;;16.90;84.30;;;;;;5053427;28;20498;-75
2022/11/01 02:25:58;;;;;;;7.35;2.97;;;16.90;84.40;;;;;;5054427;28;20032;-75
2022/11/01 02:28:34;;;;;;;6.22;3.45;;;16.90;84.50;;;;;;5054390;28;20033;-75
2022/11/01 02:31:15;;;;;;;6.50;3.30;;;16.90;84.40;;;;;;5053349;28;20044;-75
2022/11/01 02:33:47;;;;;;;7.35;3.17;;;17.00;84.40;;;;;;5036725;28;20021;-75
2022/11/01 02:36:35;;;;;;;8.68;3.35;;;17.00;84.40;;;;;;5054223;28;20029;-75
2022/11/01 02:39:09;;;;;;;8.05;3.33;;;17.10;84.20;;;;;;5053791;28;20040;-75
2022/11/01 02:41:46;;;;;;;6.88;3.05;;;17.10;84.30;;;;;;5054125;28;20029;-75
2022/11/01 02:44:19;;;;;;;9.40;3.10;;;17.10;84.00;;;;;;5048460;28;20033;-75
2022/11/01 02:47:01;;;;;;;9.10;3.75;;;17.20;83.80;;;;;;5054147;28;20021;-75
2022/11/01 02:49:32;;;;;;;7.75;3.42;;;17.10;83.70;;;;;;5054071;28;20026;-75
2022/11/01 02:52:00;;;;;;;8.57;3.27;;;17.20;83.50;;;;;;5053911;28;20052;-75
2022/11/01 02:54:55;;;;;;;7.72;3.00;;;17.20;83.50;;;;;;5053883;28;20025;-75
2022/11/01 02:57:24;;;;;;;8.50;3.60;;;17.20;83.50;;;;;;5042467;28;20038;-75
2022/11/01 02:59:49;;;;;;;10.02;3.28;;;17.20;83.70;;;;;;5053882;28;20029;-74
2022/11/01 03:02:38;;;;;;;8.55;3.13;;;17.20;83.40;;;;;;5036485;28;20035;-74
2022/11/01 03:05:35;;;;;;;10.23;2.85;;;17.20;83.50;;;;;;5053556;28;20101;-75
2022/11/01 03:08:06;;;;;;;7.90;3.17;;;17.20;83.30;;;;;;5053560;28;20022;-75
2022/11/01 03:10:44;;;;;;;10.00;2.88;;;17.20;83.40;;;;;;5053553;28;20025;-75
2022/11/01 03:13:27;;;;;;;5.78;3.17;;;17.20;83.40;;;;;;5052708;28;20032;-75
2022/11/01 03:16:02;;;;;;;7.90;3.47;;;17.20;83.30;;;;;;5053546;28;20025;-75
2022/11/01 03:18:34;;;;;;;5.57;3.30;;;17.20;83.50;;;;;;5053497;28;20020;-74
2022/11/01 03:21:14;;;;;;;6.03;3.33;;;17.20;83.30;;;;;;5053468;28;20068;-75
2022/11/01 03:23:50;;;;;;;8.93;3.58;;;17.30;83.20;;;;;;5053503;28;20033;-75
2022/11/01 03:26:26;;;;;;;5.40;3.00;;;17.30;83.10;;;;;;5053377;28;20018;-75
2022/11/01 03:28:56;;;;;;;10.00;3.20;;;17.30;83.20;;;;;;5053288;28;20047;-75
2022/11/01 03:31:28;;;;;;;7.88;4.35;;;17.30;83.20;;;;;;5053282;28;20085;-75
2022/11/01 03:33:59;;;;;;;7.38;3.20;;;17.30;83.10;;;;;;5053301;28;20026;-75
2022/11/01 03:36:31;;;;;;;8.13;2.92;;;17.40;82.70;;;;;;5053279;28;20029;-75
2022/11/01 03:39:06;;;;;;;4.55;2.78;;;17.40;82.80;;;;;;5053267;28;20017;-75
2022/11/01 03:41:37;;;;;;;8.48;3.10;;;17.40;82.60;;;;;;5053196;28;20032;-75
2022/11/01 03:44:04;;;;;;;7.68;2.92;;;17.40;82.40;;;;;;5053164;28;20018;-75
2022/11/01 03:46:29;;;;;;;9.52;3.40;;;17.50;82.50;;;;;;5053110;28;20042;-75
2022/11/01 03:48:55;;;;;;;6.68;2.97;;;17.50;82.30;;;;;;5053026;28;20038;-75
2022/11/01 03:51:21;;;;;;;5.30;2.92;;;17.40;82.20;;;;;;5053343;28;20057;-75
2022/11/01 03:53:46;;;;;;;5.47;2.80;;;17.50;82.20;;;;;;5057246;28;20032;-75
2022/11/01 03:56:13;;;;;;;6.60;3.00;;;17.50;82.10;;;;;;5057189;28;20100;-75
2022/11/01 03:58:42;;;;;;;5.90;2.65;;;17.40;81.80;;;;;;5057153;28;20021;-75
2022/11/01 04:01:09;;;;;;;7.40;3.47;;;17.50;81.30;;;;;;5057196;28;20041;-75
2022/11/01 04:03:35;;;;;;;5.57;2.85;;;17.50;81.20;;;;;;5057065;28;20029;-75
2022/11/01 04:06:00;;;;;;;7.40;2.78;;;17.60;81.00;;;;;;5055729;28;20141;-75
2022/11/01 04:08:26;;;;;;;5.82;3.05;;;17.60;80.90;;;;;;5056840;28;20033;-75
2022/11/01 04:10:52;;;;;;;5.90;2.60;;;17.60;80.40;;;;;;5056910;28;20030;-75
2022/11/01 04:13:17;;;;;;;3.85;2.20;;;17.50;77.60;;;;;;5056883;28;20094;-75
2022/11/01 04:21:13;;;;;;;2.78;1.00;;;17.40;70.80;;;;;;5056927;28;20084;-75
2022/11/01 04:23:40;;;;;;;1.83;1.33;;;17.30;70.00;;;;;;5056712;28;20460;-76
2022/11/01 04:26:09;;;;;;;4.43;1.63;;;17.30;70.70;;;;;;5039117;28;20025;-75
2022/11/01 04:28:35;;;;;;;1.25;0.90;;;17.20;70.30;;;;;;5056501;28;20025;-75
2022/11/01 04:31:00;;;;;;;4.47;1.27;;;17.20;70.60;;;;;;5039134;28;20036;-77
2022/11/01 04:33:26;;;;;;;3.25;0.90;;;17.10;69.40;;;;;;5056505;28;20018;-75
2022/11/01 04:35:51;;;;;;;3.67;0.60;;;17.00;68.30;;;;;;5038985;28;20033;-75
2022/11/01 04:38:17;;;;;;;2.28;0.68;;;16.90;66.60;;;;;;5056436;28;20029;-76
2022/11/01 04:40:43;;;;;;;1.48;0.65;;;16.90;67.10;;;;;;5056368;28;20049;-76
2022/11/01 04:43:11;;;;;;;2.00;0.65;;;16.80;65.90;;;;;;5038900;28;20030;-75
2022/11/01 04:45:36;;;;;;;2.13;0.70;;;16.70;65.50;;;;;;5056278;28;20021;-76
2022/11/01 04:48:12;;;;;;;2.80;0.50;;;16.70;65.60;;;;;;5056239;28;20041;-76
2022/11/01 04:50:39;;;;;;;1.77;0.60;;;16.70;65.80;;;;;;5056309;28;20022;-76
2022/11/01 04:53:05;;;;;;;0.68;0.38;;;16.70;65.80;;;;;;5056176;28;20048;-76
2022/11/01 04:55:31;;;;;;;1.88;0.57;;;16.70;65.20;;;;;;5038836;28;20033;-76
2022/11/01 04:57:57;;;;;;;0.60;0.35;;;16.60;65.70;;;;;;5056068;28;20024;-75
2022/11/01 05:00:24;;;;;;;1.95;0.40;;;16.50;64.70;;;;;;5038467;28;20540;-75
2022/11/01 05:02:50;;;;;;;1.58;0.40;;;16.50;65.40;;;;;;5038278;28;20093;-75
2022/11/01 05:05:17;;;;;;;1.67;0.52;;;16.50;65.30;;;;;;5055749;28;20046;-75
2022/11/01 05:07:43;;;;;;;2.15;0.73;;;16.40;64.30;;;;;;5038246;28;20032;-76
2022/11/01 05:10:09;;;;;;;1.65;0.52;;;16.40;64.60;;;;;;5055898;28;20037;-76
2022/11/01 05:12:35;;;;;;;3.40;0.50;;;16.30;65.10;;;;;;5055768;28;20025;-76
2022/11/01 05:15:01;;;;;;;1.00;0.50;;;16.30;65.30;;;;;;5055880;28;20088;-76
2022/11/01 05:17:26;;;;;;;5.75;0.65;;;16.30;65.40;;;;;;5038301;28;20021;-76
2022/11/01 05:19:52;;;;;;;2.75;0.75;;;16.20;64.90;;;;;;5055616;28;20029;-75
2022/11/01 05:22:17;;;;;;;2.13;0.50;;;16.10;65.30;;;;;;5055748;28;20097;-75
2022/11/01 05:24:43;;;;;;;1.10;0.55;;;16.10;65.40;;;;;;5038183;28;20030;-76
2022/11/01 05:27:09;;;;;;;1.88;0.60;;;16.10;65.70;;;;;;5021798;28;20026;-75
2022/11/01 05:29:34;;;;;;;1.05;0.40;;;16.10;65.70;;;;;;5055396;28;20112;-76
2022/11/01 05:32:00;;;;;;;3.88;0.63;;;16.10;65.80;;;;;;5038077;28;20017;-76
2022/11/01 05:34:26;;;;;;;2.15;0.52;;;16.00;66.00;;;;;;5055399;28;20412;-76
2022/11/01 05:36:53;;;;;;;1.17;0.30;;;16.00;66.10;;;;;;5055341;28;20025;-76
2022/11/01 05:39:18;;;;;;;1.38;0.50;;;15.90;67.30;;;;;;5055296;28;20029;-76
2022/11/01 05:41:44;;;;;;;2.20;0.50;;;15.90;67.00;;;;;;5055246;28;20026;-76
2022/11/01 05:44:10;;;;;;;1.42;0.45;;;15.90;67.10;;;;;;5055344;28;20046;-75
2022/11/01 05:46:35;;;;;;;2.72;0.82;;;15.80;67.00;;;;;;5055146;28;20026;-76
2022/11/01 05:49:01;;;;;;;4.15;0.50;;;15.70;67.50;;;;;;5037472;28;20100;-76
2022/11/01 05:51:27;;;;;;;2.35;0.65;;;15.70;67.40;;;;;;5055059;28;20097;-75
2022/11/01 05:53:52;;;;;;;0.80;0.30;;;15.70;67.80;;;;;;5055051;28;20022;-75
2022/11/01 05:56:18;;;;;;;2.22;0.60;;;15.60;66.90;;;;;;5054991;28;20033;-75
2022/11/01 05:58:45;;;;;;;1.00;0.52;;;15.60;67.30;;;;;;5054901;28;20049;-75
2022/11/01 06:01:11;;;;;;;3.28;0.68;;;15.50;67.20;;;;;;5037736;28;20389;-75
2022/11/01 06:03:36;;;;;;;1.25;0.50;;;15.50;67.80;;;;;;5054712;28;20037;-76
2022/11/01 06:06:02;;;;;;;1.17;0.45;;;15.50;68.00;;;;;;5054564;28;20060;-76
2022/11/01 06:08:29;;;;;;;0.50;0.35;;;15.40;68.40;;;;;;5054589;28;20053;-75
2022/11/01 06:11:05;;;;;;;3.08;0.68;;;15.40;68.50;;;;;;5054819;28;20064;-75
2022/11/01 06:13:32;;;;;;;3.47;1.13;;;15.40;68.80;;;;;;5054667;28;20056;-76
2022/11/01 06:16:03;;;;;;;3.17;0.80;;;15.30;68.90;;;;;;5053891;28;20535;-75
2022/11/01 06:18:29;;;;;;;1.80;0.60;;;15.20;68.90;;;;;;5053504;28;20017;-76
2022/11/01 06:20:56;;;;;;;2.30;0.50;;;15.20;69.00;;;;;;5054473;28;20022;-76
2022/11/01 06:23:22;;;;;;;2.08;0.50;;;15.20;68.60;;;;;;5036882;28;20114;-76
2022/11/01 06:25:47;;;;;;;3.13;0.70;;;15.20;68.00;;;;;;5054419;28;20033;-76
2022/11/01 06:28:13;;;;;;;4.28;0.75;;;15.10;67.10;;;;;;5036865;28;20033;-76
2022/11/01 06:30:39;;;;;;;3.50;0.70;;;15.10;67.50;;;;;;5036855;28;20033;-76
2022/11/01 06:33:05;;;;;;;3.90;0.70;;;15.00;67.30;;;;;;5054259;28;20081;-75
2022/11/01 06:35:32;;;;;;;4.43;0.60;;;15.00;67.20;;;;;;5053212;28;20025;-76
2022/11/01 06:38:07;;;;;;;5.10;0.60;;;15.10;67.80;;;;;;5054172;28;20029;-76
2022/11/01 06:40:34;;;;;;;2.70;0.60;;;15.00;68.00;;;;;;5036619;28;20040;-76
2022/11/01 06:43:01;;;;;;;4.95;0.80;;;15.00;67.90;;;;;;5036617;28;20037;-76
2022/11/01 06:45:27;;;;;;;0.88;0.38;;;14.90;67.80;;;;;;5052992;28;20036;-75
2022/11/01 06:47:53;;;;;;;2.22;0.45;;;14.90;67.90;;;;;;5053948;28;20025;-76
2022/11/01 06:50:19;;;;;;;0.70;0.32;;;14.90;67.90;;;;;;5053857;28;20131;-75
2022/11/01 06:52:44;;;;;;;0.85;0.50;;;14.80;67.50;;;;;;5036396;28;20022;-76
2022/11/01 06:55:10;;;;;;;2.78;0.73;;;14.80;67.80;;;;;;5053994;28;20476;-76
2022/11/01 06:57:36;;;;;;;2.05;0.47;;;14.80;67.90;;;;;;5036415;28;20021;-75
2022/11/01 07:00:02;;;;;;;1.98;0.75;;;14.80;67.80;;;;;;5036298;28;20030;-75
2022/11/01 07:02:28;;;;;;;3.85;0.75;;;14.70;67.90;;;;;;5053682;28;20029;-76
2022/11/01 07:04:53;;;;;;;2.40;0.50;;;14.70;68.60;;;;;;5053545;28;20060;-75
2022/11/01 07:07:19;;;;;;;2.47;0.40;;;14.70;68.80;;;;;;5036047;28;20049;-76
2022/11/01 07:09:45;;;;;;;3.67;0.63;;;14.60;69.20;;;;;;5053461;28;20029;-76
2022/11/01 07:12:10;;;;;;;2.63;0.75;;;14.60;69.60;;;;;;5036219;28;20037;-75
2022/11/01 07:14:36;;;;;;;9.20;0.98;;;14.60;69.60;;;;;;5036144;28;20022;-75
2022/11/01 07:17:01;;;;;;;3.40;0.63;;;14.60;69.60;;;;;;5053492;28;20473;-75
2022/11/01 07:19:28;;;;;;;2.05;0.50;;;14.60;69.20;;;;;;5053451;28;20044;-76
2022/11/01 07:21:53;;;;;;;3.45;0.52;;;14.60;69.50;;;;;;5036110;28;20037;-76
2022/11/01 07:24:19;;;;;;;3.55;0.50;;;14.60;69.30;;;;;;5053425;28;20045;-75
2022/11/01 07:26:45;;;;;;;2.58;0.60;;;14.70;69.40;;;;;;5053301;28;20515;-76
2022/11/01 07:29:10;;;;;;;4.00;0.80;;;14.60;69.30;;;;;;5035840;28;20037;-76
2022/11/01 07:31:37;;;;;;;4.53;1.15;;;14.60;69.20;;;;;;5053334;28;20048;-75
2022/11/01 07:34:04;;;;;;;2.85;0.70;;;14.60;69.50;;;;;;5036166;28;20439;-75
2022/11/01 07:36:29;;;;;;;6.40;0.85;;;14.60;69.40;;;;;;5036005;28;20026;-75
2022/11/01 07:38:55;;;;;;;5.75;0.60;;;14.60;69.40;;;;;;5053205;28;20033;-75
2022/11/01 07:41:20;;;;;;;4.45;0.88;;;14.60;69.30;;;;;;5053313;28;20473;-76
2022/11/01 07:43:46;;;;;;;5.18;0.80;;;14.60;69.50;;;;;;5053197;28;20033;-76
2022/11/01 07:46:12;;;;;;;2.65;0.68;;;14.60;69.90;;;;;;5052104;28;20053;-75
2022/11/01 07:48:38;;;;;;;3.67;0.80;;;14.60;69.80;;;;;;5035587;28;20061;-75
2022/11/01 07:51:04;;;;;;;5.78;1.13;;;14.60;69.90;;;;;;5035766;28;20033;-76
2022/11/01 07:53:31;;;;;;;4.68;0.63;;;14.60;69.90;;;;;;5052036;28;20017;-75
2022/11/01 07:55:58;;;;;;;3.35;0.70;;;14.60;69.30;;;;;;5053067;28;20105;-75
2022/11/01 07:58:24;;;;;;;5.55;0.90;;;14.60;70.30;;;;;;5053018;28;20024;-75
2022/11/01 08:00:49;;;;;;;3.50;0.80;;;14.70;70.30;;;;;;5053040;28;20025;-75
2022/11/01 08:03:18;;;;;;;5.40;0.70;;;14.70;69.40;;;;;;5052975;28;20036;-75
2022/11/01 08:05:44;;;;;;;4.45;1.08;;;14.70;69.60;;;;;;5052812;28;20057;-75
2022/11/01 08:08:11;;;;;;;4.70;0.75;;;14.80;69.80;;;;;;5052949;28;20021;-75
2022/11/01 08:10:38;;;;;;;3.95;0.80;;;14.90;68.70;;;;;;5052889;28;20026;-75
2022/11/01 08:13:15;;;;;;;3.20;1.00;;;15.00;68.70;;;;;;5052890;28;20024;-76
2022/11/01 08:15:41;;;;;;;5.40;1.00;;;15.20;68.30;;;;;;5053051;28;20037;-76
2022/11/01 08:18:06;;;;;;;3.38;0.80;;;15.70;66.90;;;;;;5052862;28;20030;-76
2022/11/01 08:20:32;;;;;;;6.20;0.77;;;16.00;66.20;;;;;;5035363;28;20026;-75
2022/11/01 08:22:58;;;;;;;3.55;0.70;;;16.00;64.90;;;;;;5052963;28;20040;-75
2022/11/01 08:25:24;;;;;;;5.03;0.80;;;15.90;64.80;;;;;;5052801;28;20025;-76
2022/11/01 08:27:50;;;;;;;6.95;0.85;;;15.80;66.10;;;;;;5052787;28;20030;-75
2022/11/01 08:30:16;;;;;;;4.93;0.70;;;15.70;65.80;;;;;;5052663;28;20039;-75
2022/11/01 08:32:42;;;;;;;6.28;1.10;;;15.70;66.60;;;;;;5052745;28;20036;-75
2022/11/01 08:35:10;;;;;;;4.22;1.10;;;15.70;65.50;;;;;;5052861;28;20029;-76
2022/11/01 08:37:37;;;;;;;3.75;0.95;;;15.80;65.30;;;;;;5035895;28;20037;-76
2022/11/01 08:40:03;;;;;;;5.45;1.27;;;16.00;65.60;;;;;;5056430;28;20028;-75
2022/11/01 08:42:29;;;;;;;5.93;1.10;;;16.10;64.20;;;;;;5056343;28;20092;-76
2022/11/01 08:44:54;;;;;;;6.40;1.15;;;15.90;63.80;;;;;;5055320;28;20025;-75
2022/11/01 08:47:20;;;;;;;6.97;0.80;;;15.90;64.10;;;;;;5056281;28;20033;-75
2022/11/01 08:49:45;;;;;;;3.53;0.93;;;15.80;64.70;;;;;;5038750;28;20116;-75
2022/11/01 08:52:11;;;;;;;5.03;0.93;;;15.80;64.30;;;;;;5056196;28;20029;-75
2022/11/01 08:54:36;;;;;;;5.18;0.82;;;15.80;63.70;;;;;;5056139;28;20022;-75
2022/11/01 08:57:02;;;;;;;8.38;1.35;;;15.70;63.80;;;;;;5038565;28;20032;-76
2022/11/01 08:59:28;;;;;;;10.23;1.83;;;15.70;64.50;;;;;;5056034;28;20021;-75
2022/11/01 09:01:54;;;;;;;7.95;1.40;;;15.70;64.10;;;;;;5038544;28;20021;-75
2022/11/01 09:04:19;;;;;;;8.57;1.63;;;15.70;64.00;;;;;;5055972;28;20056;-75
2022/11/01 09:06:46;;;;;;;6.78;1.15;;;15.70;64.20;;;;;;5055633;28;20064;-75
2022/11/01 09:09:11;;;;;;;6.90;0.95;;;15.80;65.10;;;;;;5055727;28;20085;-75
2022/11/01 09:11:37;;;;;;;6.05;0.90;;;15.70;64.30;;;;;;5055847;28;20025;-76
2022/11/01 09:14:03;;;;;;;9.80;1.17;;;15.80;65.00;;;;;;5038445;28;20056;-75
2022/11/01 09:16:29;;;;;;;8.10;1.20;;;15.80;64.30;;;;;;5055741;28;20106;-75
2022/11/01 09:19:00;;;;;;;3.90;0.98;;;15.70;64.80;;;;;;5038328;28;20034;-76
2022/11/01 09:21:27;;;;;;;5.97;1.33;;;15.70;64.60;;;;;;5039046;28;20049;-75
2022/11/01 09:23:52;;;;;;;5.88;1.15;;;15.70;64.00;;;;;;5055600;28;20083;-75
2022/11/01 09:26:18;;;;;;;4.55;1.00;;;15.60;63.80;;;;;;5038222;28;20089;-75
2022/11/01 09:28:44;;;;;;;4.15;1.27;;;15.70;64.80;;;;;;5037993;28;20388;-75
2022/11/01 09:31:11;;;;;;;8.38;1.15;;;15.80;65.00;;;;;;5038171;28;20036;-76
2022/11/01 09:33:37;;;;;;;8.00;1.00;;;15.90;65.00;;;;;;5021718;28;20091;-75
2022/11/01 09:36:03;;;;;;;7.13;1.48;;;16.00;64.10;;;;;;5055391;28;20084;-76
2022/11/01 09:38:29;;;;;;;7.82;1.27;;;16.10;64.60;;;;;;5055428;28;20029;-75
2022/11/01 09:41:04;;;;;;;6.60;1.10;;;16.00;64.30;;;;;;5055279;28;20021;-75
2022/11/01 09:43:33;;;;;;;3.78;0.55;;;16.00;64.10;;;;;;5055324;28;20076;-74
2022/11/01 09:46:01;;;;;;;6.47;1.92;;;16.00;64.00;;;;;;5055214;28;20021;-76
2022/11/01 09:48:29;;;;;;;5.97;1.35;;;16.00;64.20;;;;;;5054918;28;20021;-76
2022/11/01 09:50:55;;;;;;;7.90;1.00;;;16.00;64.70;;;;;;5036736;28;20033;-76
2022/11/01 09:53:24;;;;;;;7.40;1.02;;;16.10;65.20;;;;;;5055056;28;20044;-75
2022/11/01 09:55:57;;;;;;;11.20;1.13;;;16.20;63.70;;;;;;5055025;28;20018;-75
2022/11/01 09:59:00;;;;;;;6.30;1.05;;;16.10;64.10;;;;;;5055002;28;20022;-75
2022/11/01 10:01:47;;;;;;;9.88;1.00;;;15.90;63.90;;;;;;4968454;28;20063;-75
2022/11/01 10:04:49;;;;;;;7.38;1.55;;;15.90;64.60;;;;;;5055012;28;20045;-76
2022/11/01 10:07:49;;;;;;;5.55;1.35;;;16.00;64.80;;;;;;5054403;28;20045;-76
2022/11/01 10:10:27;;;;;;;8.70;1.25;;;16.00;64.90;;;;;;5054664;28;20056;-75
2022/11/01 10:13:01;;;;;;;5.70;1.40;;;16.00;64.80;;;;;;5054694;28;20084;-76
2022/11/01 10:15:33;;;;;;;7.45;1.20;;;16.00;65.00;;;;;;5054706;28;20085;-75
2022/11/01 10:18:26;;;;;;;6.70;1.20;;;16.00;65.20;;;;;;5037480;28;20042;-75
2022/11/01 10:20:54;;;;;;;4.95;1.15;;;16.10;65.10;;;;;;5054607;28;20013;-76
2022/11/01 10:23:29;;;;;;;5.55;1.35;;;16.20;64.50;;;;;;5054453;28;20021;-75
2022/11/01 10:25:54;;;;;;;5.97;1.00;;;16.10;64.50;;;;;;5054480;28;20024;-75
2022/11/01 10:28:49;;;;;;;4.03;0.88;;;16.10;64.40;;;;;;5054384;28;20049;-75
2022/11/01 10:31:17;;;;;;;5.15;1.10;;;16.20;64.70;;;;;;5054343;28;20034;-75
2022/11/01 10:33:57;;;;;;;5.82;1.33;;;16.30;65.60;;;;;;5054245;28;20025;-75
2022/11/01 10:36:32;;;;;;;5.72;0.88;;;16.40;64.70;;;;;;5054414;28;20028;-76
2022/11/01 10:39:24;;;;;;;6.63;1.13;;;16.40;64.00;;;;;;5054175;28;20031;-76
2022/11/01 10:41:51;;;;;;;5.25;1.25;;;16.50;64.40;;;;;;5054179;28;20033;-76
2022/11/01 10:44:29;;;;;;;8.48;1.52;;;16.60;64.40;;;;;;5054092;28;20032;-77
2022/11/01 10:46:57;;;;;;;8.48;1.30;;;16.70;64.90;;;;;;5054077;28;20107;-75
2022/11/01 10:49:27;;;;;;;5.55;1.02;;;16.70;64.40;;;;;;5053876;28;20057;-75
2022/11/01 10:51:57;;;;;;;7.50;1.50;;;16.60;63.70;;;;;;5054134;28;20053;-76
2022/11/01 10:54:26;;;;;;;6.03;1.52;;;16.70;64.00;;;;;;5052926;28;20025;-75
2022/11/01 10:56:54;;;;;;;8.50;1.42;;;16.80;63.10;;;;;;5053827;28;20029;-76
2022/11/01 10:59:45;;;;;;;8.63;0.90;;;16.90;63.50;;;;;;5053827;28;20029;-76
2022/11/01 11:02:31;;;;;;;6.35;0.85;;;16.90;64.10;;;;;;5053546;28;20037;-76
2022/11/01 11:04:56;;;;;;;8.05;1.15;;;17.00;64.30;;;;;;5053774;28;20025;-75
2022/11/01 11:07:23;;;;;;;6.00;1.10;;;16.90;63.10;;;;;;5036125;28;20102;-75
2022/11/01 11:09:49;;;;;;;6.88;2.45;;;16.80;63.50;;;;;;5053607;28;20045;-76
2022/11/01 11:12:20;;;;;;;6.22;0.85;;;16.90;64.60;;;;;;5036268;28;20029;-75
2022/11/01 11:14:52;;;;;;;4.00;0.90;;;17.00;64.20;;;;;;5053618;28;20033;-75
2022/11/01 11:17:23;;;;;;;7.03;1.38;;;16.90;63.50;;;;;;5053567;28;20021;-75
2022/11/01 11:19:51;;;;;;;6.00;1.10;;;16.90;63.50;;;;;;5053580;28;20100;-75
2022/11/01 11:22:20;;;;;;;5.85;0.90;;;16.90;63.00;;;;;;5052362;28;20026;-74
2022/11/01 11:24:45;;;;;;;3.95;0.82;;;17.00;63.10;;;;;;5053596;28;20029;-74
2022/11/01 11:27:21;;;;;;;9.30;1.02;;;16.90;62.90;;;;;;5053387;28;20033;-76
2022/11/01 11:29:53;;;;;;;11.10;1.50;;;17.00;63.70;;;;;;5053383;28;20040;-75
2022/11/01 11:32:26;;;;;;;;;;;17.00;62.00;;;;;;5053482;28;20022;-76
2022/11/01 11:34:57;;;;;;;;;;;16.90;62.60;;;;;;5053800;28;19928;-76
2022/11/01 11:37:25;;;;;;;5.28;0.85;;;17.00;62.60;;;;;;5052257;28;19905;-75
2022/11/01 11:40:21;;;;;;;6.32;0.90;;;17.00;62.30;;;;;;5052292;28;20033;-76
2022/11/01 11:42:49;;;;;;;9.77;1.38;;;17.00;62.40;;;;;;5051393;28;20052;-75
2022/11/01 11:45:22;;;;;;;7.20;1.33;;;17.00;62.70;;;;;;5053188;28;20029;-75
2022/11/01 11:47:49;;;;;;;4.53;0.90;;;17.00;63.00;;;;;;5035701;28;20034;-75
2022/11/01 11:50:20;;;;;;;5.38;0.90;;;17.00;62.40;;;;;;5053083;28;20055;-76
2022/11/01 11:53:07;;;;;;;11.85;1.00;;;17.10;62.40;;;;;;5035708;28;20033;-75
2022/11/01 11:55:38;;;;;;;5.38;0.95;;;17.10;62.40;;;;;;5053124;28;20033;-75
2022/11/01 11:58:13;;;;;;;5.15;0.77;;;17.20;62.50;;;;;;5053042;28;20017;-76
2022/11/01 12:00:43;;;;;;;5.90;0.90;;;17.30;63.60;;;;;;5053101;28;20026;-75
2022/11/01 12:03:13;;;;;;;6.43;1.05;;;17.30;62.60;;;;;;5053054;28;20033;-75
2022/11/01 12:05:51;;;;;;;5.40;1.38;;;17.30;61.50;;;;;;5052804;28;20030;-75
2022/11/01 12:08:37;;;;;;;5.18;1.60;;;17.40;62.50;;;;;;5052938;28;20056;-76
2022/11/01 12:11:03;;;;;;;7.72;0.80;;;17.50;61.90;;;;;;5053004;28;20030;-75
2022/11/01 12:13:35;;;;;;;5.30;0.98;;;17.60;60.90;;;;;;5055071;28;20014;-76
2022/11/01 12:16:25;;;;;;;5.70;1.25;;;17.70;61.20;;;;;;5056937;28;20025;-75
2022/11/01 12:19:24;;;;;;;9.25;1.23;;;17.60;60.90;;;;;;5044198;28;20052;-76
2022/11/01 12:21:50;;;;;;;5.57;0.80;;;17.40;60.80;;;;;;5051079;28;20037;-76
2022/11/01 12:24:37;;;;;;;8.93;1.15;;;17.30;61.20;;;;;;5056785;28;20026;-76
2022/11/01 12:27:08;;;;;;;4.47;1.00;;;17.30;62.20;;;;;;5055787;28;20026;-75
2022/11/01 12:29:56;;;;;;;7.28;1.05;;;17.20;61.70;;;;;;5056654;28;20030;-75
2022/11/01 12:32:27;;;;;;;6.55;0.75;;;17.10;62.10;;;;;;5056628;28;20025;-75
2022/11/01 12:34:57;;;;;;;5.10;0.77;;;17.10;62.50;;;;;;5056598;28;20045;-76
2022/11/01 12:37:29;;;;;;;3.05;1.00;;;17.10;62.30;;;;;;5056519;28;20081;-75
2022/11/01 12:40:22;;;;;;;8.27;1.33;;;17.10;62.60;;;;;;5038880;28;20025;-76
2022/11/01 12:43:15;;;;;;;9.45;0.82;;;17.10;62.60;;;;;;5056523;28;20030;-75
2022/11/01 12:45:46;;;;;;;5.65;0.90;;;17.10;62.80;;;;;;5056414;28;20102;-76
2022/11/01 12:48:32;;;;;;;6.63;0.93;;;17.10;62.60;;;;;;5056325;28;20040;-75
2022/11/01 12:51:04;;;;;;;4.63;0.85;;;17.10;62.20;;;;;;5056451;28;20532;-75
2022/11/01 12:53:38;;;;;;;5.60;0.90;;;17.10;62.40;;;;;;5055453;28;20014;-75
2022/11/01 12:56:04;;;;;;;4.10;0.80;;;17.00;62.40;;;;;;5038709;28;20028;-76
2022/11/01 12:58:30;;;;;;;4.93;1.10;;;17.10;63.20;;;;;;5056278;28;20030;-75
2022/11/01 13:01:14;;;;;;;2.78;0.98;;;17.10;62.70;;;;;;5038801;28;20060;-75
2022/11/01 13:03:55;;;;;;;5.75;0.80;;;17.10;62.50;;;;;;5038765;28;20033;-75
2022/11/01 13:06:42;;;;;;;5.90;0.95;;;17.10;62.70;;;;;;5038306;28;20088;-75